• Join FlightAware (Why Join?)
  • Login
  • US Flag 
10:59PM EDT


 

Airport Tracker/Info


-or-


 

Live Flight TrackerFlight Track Log ✈ CPZ5718 ✈ 30-Jun-2013 ✈ KALB - KMSP

Flight Track Log - Related Links

Times and Time Zones

All times are in EDT time to prevent confusion due to time zone crossing. See the CPZ5718 flight status page for this flight to view local times or setup timezone preferences in your user account.

Time Position Orientation Groundspeed Altitude Reporting Facility
EDT Latitude Longitude Course Direction KTS MPH feet Rate Location/Type
06:45AM 42.7236 -73.8081 281° West 150 173 1,100  Level Boston Center
06:46AM 42.7147 -73.8586 257° West 216 249 2,400 1,740 Climbing Boston Center
06:47AM 42.7553 -73.9275 309° West 251 289 4,800 2,820 Climbing Boston Center
06:48AM 42.8422 -74.3860 283° West  Level FlightAware Approximate
06:48AM 42.8064 -74.0050 312° West 270 311 8,000  Level Boston Center
06:49AM 42.8677 -74.5344 324° Northwest  Level FlightAware Approximate
06:49AM 42.8575 -74.0858 311° West 270 311 10,800  Level Boston Center
06:50AM 42.9004 -74.6744 281° West  Level FlightAware Approximate
06:50AM 42.8850 -74.1914 290° West 281 323 12,200  Level Boston Center
06:51AM 42.9209 -74.8249 281° West  Level FlightAware Approximate
06:51AM 42.9019 -74.3164 281° West 328 377 14,700  Level Boston Center
06:52AM 42.9186 -74.4389 281° West 340 391 16,600 2,040 Climbing Boston Center
06:53AM 42.9392 -74.5672 282° West 340 391 18,800 1,800 Climbing Boston Center
06:54AM 42.9556 -74.6842 281° West 340 391 20,200 1,500 Climbing Boston Center
06:55AM 42.9736 -74.8211 280° West 352 405 21,900 1,560 Climbing Boston Center
06:56AM 42.9936 -74.9553 282° West 362 417 23,400 1,500 Climbing Boston Center
06:57AM 43.0133 -75.0953 281° West 373 429 24,900 1,380 Climbing Boston Center
06:58AM 43.0328 -75.2408 280° West 373 429 26,200 1,260 Climbing Boston Center
06:59AM 43.0522 -75.3839 281° West 378 435 27,500 1,020 Climbing Boston Center
07:00AM 43.0678 -75.5011 280° West 383 441 28,300 1,020 Climbing Boston Center
07:01AM 43.0922 -75.6789 281° West 395 455 29,600 1,200 Climbing Boston Center
07:02AM 43.1108 -75.8247 280° West 395 455 30,700 1,080 Climbing Boston Center
07:04AM 43.1167 -76.0167 272° West 390 449 32,400 1,020 Climbing Toronto Center
07:05AM 43.1500 -76.1833 285° West 380 437 33,400 780 Climbing Toronto Center
07:06AM 43.1333 -76.3167 260° West 360 414 34,000 300 Climbing Toronto Center
07:07AM 43.1167 -76.4500 260° West 360 414 34,000  Level Toronto Center
07:08AM 43.1167 -76.5667 270° West 360 414 34,000  Level Toronto Center
07:09AM 43.1000 -76.7333 262° West 360 414 34,000  Level Toronto Center
07:10AM 43.1000 -76.8500 270° West 360 414 34,000  Level Toronto Center
07:11AM 43.0833 -76.9833 260° West 360 414 34,000  Level Toronto Center
07:12AM 43.1000 -77.1167 280° West 370 426 34,000  Level Toronto Center
07:13AM 43.1167 -77.2500 280° West 380 437 34,100 300 Climbing Toronto Center
07:14AM 43.1500 -77.4167 285° West 380 437 34,600 480 Climbing Toronto Center
07:15AM 43.1833 -77.5500 289° West 380 437 35,100 480 Climbing Toronto Center
07:16AM 43.2000 -77.6833 280° West 380 437 35,600 420 Climbing Toronto Center
07:17AM 43.2167 -77.8333 279° West 380 437 36,000 180 Climbing Toronto Center
07:18AM 43.2500 -77.9833 287° West 390 449 36,000  Level Toronto Center
07:19AM 43.2667 -78.1167 280° West 400 460 36,000  Level Toronto Center
07:20AM 43.3000 -78.2833 285° West 410 472 36,000  Level Toronto Center
07:21AM 43.3167 -78.4333 279° West 420 483 36,000  Level Toronto Center
07:22AM 43.3667 -78.6000 292° West 420 483 36,000  Level Toronto Center
07:23AM 43.3833 -78.7667 278° West 420 483 36,000  Level Toronto Center
07:24AM 43.4167 -78.9000 289° West 420 483 36,000  Level Toronto Center
07:25AM 43.4333 -79.0833 277° West 420 483 36,000  Level Toronto Center
07:26AM 43.4667 -79.2167 289° West 430 495 36,000  Level Toronto Center
07:27AM 43.4833 -79.3833 278° West 430 495 36,000  Level Toronto Center
07:28AM 43.5167 -79.5333 287° West 430 495 36,000  Level Toronto Center
07:29AM 43.5333 -79.7000 278° West 440 506 36,000  Level Toronto Center
07:30AM 43.5667 -79.8667 285° West 440 506 36,000  Level Toronto Center
07:31AM 43.5833 -80.0500 277° West 440 506 36,000  Level Toronto Center
07:32AM 43.6167 -80.2167 285° West 440 506 36,000  Level Toronto Center
07:33AM 43.6500 -80.3667 287° West 450 518 36,000  Level Toronto Center
07:34AM 43.6667 -80.5333 278° West 440 506 36,000  Level Toronto Center
07:35AM 43.7000 -80.7167 284° West 450 518 36,000  Level Toronto Center
07:36AM 43.7000 -80.8833 270° West 450 518 36,000  Level Toronto Center
07:37AM 43.7333 -81.0333 287° West 450 518 36,000  Level Toronto Center
07:38AM 43.7500 -81.2333 277° West 450 518 36,000  Level Toronto Center
07:39AM 43.7833 -81.3833 287° West 450 518 36,000  Level Toronto Center
07:40AM 43.8167 -81.5500 286° West 450 518 36,000  Level Toronto Center
07:41AM 43.8333 -81.7167 278° West 450 518 36,000  Level Toronto Center
07:42AM 43.8667 -81.9000 284° West 450 518 36,000  Level Toronto Center
07:43AM 43.8833 -82.0667 278° West 460 529 36,000  Level Toronto Center
07:44AM 43.9000 -82.2500 277° West 460 529 36,000  Level Toronto Center
07:45AM 43.9333 -82.4167 286° West 460 529 36,000  Level Toronto Center
07:46AM 43.9667 -82.6000 284° West 470 541 36,000  Level Toronto Center
07:46AM 43.9742 -82.7064 276° West 466 536 36,000  Level Minneapolis Center
07:47AM 43.9975 -82.8853 280° West 470 541 36,000  Level Minneapolis Center
07:48AM 44.0206 -83.0644 280° West 471 542 36,000  Level Minneapolis Center
07:49AM 44.0433 -83.2414 280° West 469 540 36,000  Level Minneapolis Center
07:50AM 44.0661 -83.4183 280° West 467 537 36,000  Level Minneapolis Center
07:51AM 44.0878 -83.5969 280° West 469 540 36,000  Level Minneapolis Center
07:52AM 44.1097 -83.7756 280° West 469 540 36,000  Level Minneapolis Center
07:53AM 44.1311 -83.9533 280° West 469 540 36,000  Level Minneapolis Center
07:54AM 44.1525 -84.1308 280° West 466 536 36,000  Level Minneapolis Center
07:56AM 44.1722 -84.3086 279° West 464 534 36,000  Level Minneapolis Center
07:57AM 44.1942 -84.4867 280° West 467 537 36,000  Level Minneapolis Center
07:58AM 44.2136 -84.6650 279° West 466 536 36,000  Level Minneapolis Center
07:59AM 44.2344 -84.8419 279° West 465 535 36,000  Level Minneapolis Center
08:00AM 44.2539 -85.0197 279° West 464 534 36,000  Level Minneapolis Center
08:01AM 44.2736 -85.1956 279° West 461 531 36,000  Level Minneapolis Center
08:02AM 44.2958 -85.4078 278° West 461 531 36,000  Level Minneapolis Center
08:03AM 44.3139 -85.5869 278° West 463 533 36,000  Level Minneapolis Center
08:04AM 44.3325 -85.7658 278° West 463 533 36,000  Level Minneapolis Center
08:05AM 44.3514 -85.9453 278° West 465 535 36,000  Level Minneapolis Center
08:06AM 44.3694 -86.1239 278° West 463 533 36,000  Level Minneapolis Center
08:07AM 44.3867 -86.3031 278° West 462 532 36,000  Level Minneapolis Center
08:08AM 44.4036 -86.4817 278° West 463 533 36,000  Level Minneapolis Center
08:09AM 44.4200 -86.6606 277° West 463 533 36,000  Level Minneapolis Center
08:10AM 44.4381 -86.8386 278° West 462 532 36,000  Level Minneapolis Center
08:11AM 44.4533 -87.0164 277° West 461 531 36,000  Level Minneapolis Center
08:12AM 44.4711 -87.1953 278° West 463 533 36,000  Level Minneapolis Center
08:13AM 44.4875 -87.3736 277° West 463 533 36,000  Level Minneapolis Center
08:14AM 44.5019 -87.5519 277° West 462 532 36,000  Level Minneapolis Center
08:15AM 44.5167 -87.7292 277° West 460 529 36,000  Level Minneapolis Center
08:16AM 44.5319 -87.9083 277° West 463 533 36,000  Level Minneapolis Center
08:17AM 44.5456 -88.0786 276° West 459 528 36,000  Level Minneapolis Center
08:18AM 44.5619 -88.2556 277° West 459 528 36,000  Level Minneapolis Center
08:19AM 44.5861 -88.4619 279° West 461 531 36,000  Level Minneapolis Center
08:20AM 44.6072 -88.6375 280° West 460 529 36,000  Level Minneapolis Center
08:21AM 44.6275 -88.8144 279° West 461 531 36,000  Level Minneapolis Center
08:22AM 44.6469 -88.9928 279° West 461 531 36,000  Level Minneapolis Center
08:23AM 44.6664 -89.1686 279° West 460 529 36,000  Level Minneapolis Center
08:24AM 44.6856 -89.3478 279° West 463 533 36,000 -180 Level Minneapolis Center
08:25AM 44.7047 -89.5247 279° West 461 531 35,700 -780 Descending Minneapolis Center
08:26AM 44.7247 -89.7017 279° West 460 529 34,500 -1,200 Descending Minneapolis Center
08:27AM 44.7425 -89.8794 278° West 461 531 33,300 -1,200 Descending Minneapolis Center
08:28AM 44.7608 -90.0597 278° West 463 533 32,100 -660 Descending Minneapolis Center
08:29AM 44.7792 -90.2367 278° West 461 531 32,000 -60 Descending Minneapolis Center
08:30AM 44.8006 -90.4464 278° West 465 535 32,000  Level Minneapolis Center
08:31AM 44.8169 -90.6097 278° West 462 532 32,000 -300 Level Minneapolis Center
08:32AM 44.8328 -90.7894 277° West 464 534 31,500 -1,560 Descending Minneapolis Center
08:33AM 44.8533 -91.0044 278° West 465 535 28,600 -2,400 Descending Minneapolis Center
08:34AM 44.8700 -91.1797 278° West 459 528 26,200 -2,340 Descending Minneapolis Center
08:35AM 44.8861 -91.3486 278° West 445 512 23,900 -2,460 Descending Minneapolis Center
08:36AM 44.9078 -91.5425 279° West 425 489 21,300 -2,400 Descending Minneapolis Center
08:37AM 44.9386 -91.6950 286° West 410 472 19,100 -2,160 Descending Minneapolis Center
08:38AM 44.9678 -91.8453 285° West 402 463 17,000 -2,100 Descending Minneapolis Center
08:39AM 44.9956 -91.9906 285° West 387 445 14,900 -1,980 Descending Minneapolis Center
08:40AM 45.0211 -92.1317 284° West 375 432 13,000 -1,920 Descending Minneapolis Center
08:41AM 45.0453 -92.2686 284° West 363 418 11,100 -1,200 Descending Minneapolis Center
08:42AM 45.0308 -92.4075 262° West 361 415 10,600 -840 Descending Minneapolis Center
08:43AM 44.9939 -92.5156 244° Southwest 316 364 9,500 -1,320 Descending Minneapolis Center
08:44AM 44.9283 -92.5919 220° Southwest 304 350 8,000 -1,260 Descending Minneapolis Center
08:45AM 44.8819 -92.6822 234° Southwest 287 330 7,000 -1,020 Descending Minneapolis Center
08:46AM 44.8319 -92.7950 238° Southwest 283 326 6,000 -1,380 Descending Minneapolis Center
08:47AM 44.7947 -92.8892 241° Southwest 282 325 4,200 -1,020 Descending Minneapolis Center
08:48AM 44.7919 -92.9867 268° West 250 288 4,000 -240 Descending Minneapolis Center